Kernville, CA (93238)

11:44 PM PDT on May 27, 2017 (GMT -0700)
MKRNC1 | | Change Station

Elev 3040 ft 35.78 °N, 118.43 °W | Updated 13 days ago

Clear
Clear
49.0 °F
Feels Like 48 °F
N
4.0
Wind Variable Wind from ESE
Gusts 6.0 mph

Today
High -- | Low -- °F
--% Chance of Precip.
Yesterday
High -- | Low -- °F
Precip. -- in
Pressure 29.91 in
Visibility 10.0 miles
Clouds Clear
Windchill 48 °F
Dew Point 34 °F
Humidity 55%
Rainfall 0.00 in
Snow Depth Not available.
5:40 AM 8:01 PM
Waxing Crescent, 9% visible
METAR KNID 280556Z AUTO 20009KT 10SM CLR 23/04 A2996 RMK AO2 SLP129 T02330044 10328 20233 53012 $
Pressure 29.91 in
Visibility 10.0 miles
Clouds Clear
Windchill 48 °F
Dew Point 34 °F
Humidity 55%
Rainfall 0.00 in
Snow Depth Not available.
5:40 AM 8:01 PM
Waxing Crescent, 9% visible
METAR KNID 280556Z AUTO 20009KT 10SM CLR 23/04 A2996 RMK AO2 SLP129 T02330044 10328 20233 53012 $

Get Severe Weather Alerts

Thanks for signing up!

Be on the lookout for a verification email in your inbox.

You'll start receiving the daily forecast at 6 AM.

×

10-Day Weather Forecast

Almanac

Astronomy

May. 27, 2017 Rise Set
Actual Time
Civil Twilight
Nautical Twilight
Astronomical Twilight
Moon
Length of Visible Light
Length of Day
Tomorrow will be .
, % of the Moon is Illuminated

Today's Extremes

State Highs State Lows

Community

WunderPhotos

Category 6

Welcome to Category 6. This is the collective home for Weather Underground's featured writeups by Dr. Jeff Masters (right), Bob Henson (left), Chris Burt, and other regular contributors.

Nearby

Air Quality

  Air Quality AQ Index Pollutant
Not available.

Snow Depth

Station Depth Elevation

Earthquake Activity

City Distance Mag. Time & Date
Minimum magnitude displayed is 2.5.

Coastal Water Temperatures

Place Temperature

Stations

Nearby Weather Stations

Station Location Temp. Windchill Dew Point Humidity Wind Precip. Elev Updated Type
                   

Watches & Warnings

There are currently no watches in effect.